createdAt,value
2023-05-19T00:01:03.022Z,11.8
2023-05-19T00:06:03.226Z,11.9
2023-05-19T00:11:03.094Z,11.8
2023-05-19T00:16:03.281Z,11.8
2023-05-19T00:21:03.053Z,11.8
2023-05-19T00:26:03.044Z,11.8
2023-05-19T00:31:03.057Z,11.7
2023-05-19T00:36:03.233Z,11.6
2023-05-19T00:41:03.051Z,11.6
2023-05-19T00:46:03.027Z,11.4
2023-05-19T00:51:03.042Z,11.4
2023-05-19T00:56:03.088Z,11.4
2023-05-19T01:01:03.077Z,11.4
2023-05-19T01:06:03.211Z,11.3
2023-05-19T01:11:03.056Z,11.2
2023-05-19T01:16:03.198Z,11.1
2023-05-19T01:21:03.108Z,11.2
2023-05-19T01:26:03.036Z,11.1
2023-05-19T01:31:03.100Z,11.2
2023-05-19T01:36:03.070Z,11.1
2023-05-19T01:41:03.051Z,11.1
2023-05-19T01:46:03.121Z,11
2023-05-19T01:51:03.027Z,10.9
2023-05-19T01:56:03.068Z,10.9
2023-05-19T02:01:03.206Z,10.8
2023-05-19T02:06:03.083Z,10.7
2023-05-19T02:11:03.073Z,10.6
2023-05-19T02:16:03.259Z,10.6
2023-05-19T02:21:03.038Z,10.6
2023-05-19T02:26:03.299Z,10.4
2023-05-19T02:31:03.223Z,10.4
2023-05-19T02:36:03.053Z,10.4
2023-05-19T02:41:03.045Z,10.3
2023-05-19T02:46:03.273Z,10.4
2023-05-19T02:51:03.084Z,10.3
2023-05-19T02:56:03.129Z,10.4
2023-05-19T03:01:03.123Z,10.4
2023-05-19T03:06:03.071Z,10.4
2023-05-19T03:11:03.236Z,10.4
2023-05-19T03:16:03.060Z,10.3
2023-05-19T03:21:03.222Z,10
2023-05-19T03:26:03.031Z,9.8
2023-05-19T03:31:03.099Z,9.8
2023-05-19T03:36:03.209Z,9.7
2023-05-19T03:41:03.288Z,9.6
2023-05-19T03:46:03.074Z,9.5
2023-05-19T03:51:03.092Z,9.4
2023-05-19T03:56:03.081Z,9.4
2023-05-19T04:01:03.083Z,9.3
2023-05-19T04:06:03.103Z,9.3
2023-05-19T04:11:03.270Z,9.3
2023-05-19T04:16:03.171Z,9.3
2023-05-19T04:21:03.044Z,9.4
2023-05-19T04:26:03.050Z,9.4
2023-05-19T04:31:03.241Z,9.4
2023-05-19T04:36:03.072Z,9.6
2023-05-19T04:41:03.117Z,9.4
2023-05-19T04:46:03.125Z,9.5
2023-05-19T04:51:03.262Z,9.6
2023-05-19T04:56:03.171Z,9.8
2023-05-19T05:01:03.158Z,9.9
2023-05-19T05:06:03.275Z,9.9
2023-05-19T05:11:03.090Z,9.9
2023-05-19T05:16:03.111Z,9.9
2023-05-19T05:21:03.074Z,9.9
2023-05-19T05:26:03.099Z,9.9
2023-05-19T05:31:03.133Z,10
2023-05-19T05:36:03.045Z,10.3
2023-05-19T05:41:03.140Z,10.6
2023-05-19T05:46:03.134Z,10.9
2023-05-19T05:51:03.138Z,11.1
2023-05-19T05:56:03.109Z,11.3
2023-05-19T06:01:03.070Z,11.5
2023-05-19T06:06:03.174Z,11.6
2023-05-19T06:11:03.079Z,11.9
2023-05-19T06:16:03.087Z,11.8
2023-05-19T06:21:03.095Z,12.1
2023-05-19T06:26:03.083Z,12.3
2023-05-19T06:31:03.064Z,12.5
2023-05-19T06:36:03.283Z,12.6
2023-05-19T06:41:03.137Z,12.6
2023-05-19T06:46:03.092Z,12.7
2023-05-19T06:51:03.117Z,13
2023-05-19T06:56:03.132Z,13.3
2023-05-19T07:01:03.135Z,13.2
2023-05-19T07:06:03.746Z,13.3
2023-05-19T07:11:03.093Z,13.6
2023-05-19T07:16:03.215Z,13.8
2023-05-19T07:21:03.168Z,13.4
2023-05-19T07:26:03.162Z,13.6
2023-05-19T07:31:03.210Z,13.6
2023-05-19T07:36:03.136Z,13.6
2023-05-19T07:41:03.150Z,14
2023-05-19T07:46:03.120Z,14.3
2023-05-19T07:51:03.112Z,14.9
2023-05-19T07:56:03.067Z,14.9
2023-05-19T08:01:03.259Z,15.1
2023-05-19T08:06:03.140Z,14.9
2023-05-19T08:11:03.139Z,15.2
2023-05-19T08:16:03.283Z,15.4
2023-05-19T08:21:03.344Z,15.5
2023-05-19T08:26:03.096Z,15.5
2023-05-19T08:31:03.128Z,15.1
2023-05-19T08:36:03.134Z,15
2023-05-19T08:41:03.155Z,15.3
2023-05-19T08:46:03.140Z,15.9
2023-05-19T08:51:03.162Z,16.1
2023-05-19T08:56:03.176Z,16.2
2023-05-19T09:01:03.106Z,15.4
2023-05-19T09:06:03.177Z,15.4
2023-05-19T09:11:03.243Z,15.1
2023-05-19T09:16:03.154Z,14.9
2023-05-19T09:21:03.343Z,15.1
2023-05-19T09:26:03.271Z,15.5
2023-05-19T09:31:03.142Z,15.1
2023-05-19T09:36:03.357Z,15.1
2023-05-19T09:41:03.118Z,15
2023-05-19T09:46:03.204Z,15
2023-05-19T09:51:03.308Z,15.2
2023-05-19T09:56:03.489Z,15.2
2023-05-19T10:01:03.235Z,15.6
2023-05-19T10:06:03.152Z,15.6
2023-05-19T10:11:03.204Z,16.3
2023-05-19T10:16:03.323Z,16.3
2023-05-19T10:21:03.151Z,15.8
2023-05-19T10:26:03.416Z,16
2023-05-19T10:31:03.138Z,15.9
2023-05-19T10:36:03.260Z,16.6
2023-05-19T10:41:03.463Z,16.6
2023-05-19T10:46:03.180Z,17.7
2023-05-19T10:51:03.202Z,17.1
2023-05-19T10:56:03.167Z,16.9
2023-05-19T11:01:03.177Z,17.3
2023-05-19T11:06:03.119Z,18
2023-05-19T11:11:03.202Z,17.4
2023-05-19T11:16:03.188Z,16.9
2023-05-19T11:21:03.137Z,16.6
2023-05-19T11:26:03.182Z,17.2
2023-05-19T11:31:03.239Z,17.9
2023-05-19T11:36:03.252Z,17.9
2023-05-19T11:41:03.286Z,18.3
2023-05-19T11:46:03.256Z,17.7
2023-05-19T11:51:03.283Z,17.3
2023-05-19T11:56:03.235Z,18.3
2023-05-19T12:01:03.139Z,18.4
2023-05-19T12:06:03.189Z,18.6
2023-05-19T12:11:03.192Z,18.7
2023-05-19T12:16:03.184Z,20.8
2023-05-19T12:21:03.202Z,20.8
2023-05-19T12:26:03.155Z,18.6
2023-05-19T12:31:03.172Z,19.7
2023-05-19T12:36:03.152Z,23.2
2023-05-19T12:41:03.189Z,22.4
2023-05-19T12:46:03.210Z,19.9
2023-05-19T12:51:03.161Z,20.3
2023-05-19T12:56:03.242Z,24.1
2023-05-19T13:01:03.222Z,20.4
2023-05-19T13:06:04.385Z,20.9
2023-05-19T13:11:03.142Z,20.9
2023-05-19T13:16:03.265Z,22
2023-05-19T13:21:03.188Z,20.5
2023-05-19T13:26:03.197Z,21
2023-05-19T13:31:03.172Z,20.7
2023-05-19T13:36:03.247Z,21.7
2023-05-19T13:41:03.141Z,20.5
2023-05-19T13:46:03.237Z,20.3
2023-05-19T13:51:03.210Z,20.2
2023-05-19T13:56:03.277Z,19.9
2023-05-19T14:01:03.139Z,18.9
2023-05-19T14:06:03.244Z,19.1
2023-05-19T14:11:03.219Z,19
2023-05-19T14:16:03.330Z,19.3
2023-05-19T14:21:03.197Z,19.3
2023-05-19T14:26:03.471Z,19.7
2023-05-19T14:31:03.235Z,19.7
2023-05-19T14:36:03.257Z,20.6
2023-05-19T14:41:03.184Z,21.7
2023-05-19T14:46:07.879Z,22
2023-05-19T14:51:03.223Z,21.8
2023-05-19T14:56:04.572Z,20.6
2023-05-19T15:01:03.212Z,20.2
2023-05-19T15:06:03.205Z,20.5
2023-05-19T15:11:04.379Z,21.1
2023-05-19T15:16:16.038Z,20.4
2023-05-19T15:21:03.184Z,20.8
2023-05-19T15:26:03.257Z,20.3
2023-05-19T15:31:03.333Z,20.1
2023-05-19T15:36:03.198Z,19.5
2023-05-19T15:41:03.290Z,19.2
2023-05-19T15:46:04.300Z,19.3
2023-05-19T15:51:03.243Z,19.4
2023-05-19T15:56:04.578Z,19
2023-05-19T16:01:03.196Z,19.1
2023-05-19T16:06:03.192Z,18.9
2023-05-19T16:11:03.442Z,19.8
2023-05-19T16:16:03.468Z,20.1
2023-05-19T16:21:03.302Z,19.6
2023-05-19T16:26:03.295Z,19.9
2023-05-19T16:31:03.231Z,19.3
2023-05-19T16:36:03.227Z,19.4
2023-05-19T16:41:03.575Z,19.6
2023-05-19T16:46:04.007Z,19.3
2023-05-19T16:51:03.264Z,18.6
2023-05-19T16:56:03.440Z,18.4
2023-05-19T17:01:03.216Z,18.4
2023-05-19T17:06:03.398Z,18.7
2023-05-19T17:11:03.383Z,18.8
2023-05-19T17:16:03.367Z,18.4
2023-05-19T17:21:03.895Z,18.2
2023-05-19T17:26:05.749Z,18.1
2023-05-19T17:31:03.303Z,17.9
2023-05-19T17:36:03.416Z,17.8
2023-05-19T17:41:03.390Z,17.7
2023-05-19T17:46:03.480Z,17.6
2023-05-19T17:51:03.992Z,17.6
2023-05-19T17:56:03.216Z,17.5
2023-05-19T18:01:04.527Z,17.4
2023-05-19T18:06:03.287Z,17.4
2023-05-19T18:11:03.275Z,17.3
2023-05-19T18:16:03.281Z,17.3
2023-05-19T18:21:03.455Z,17.2
2023-05-19T18:26:03.269Z,17.1
2023-05-19T18:31:03.283Z,16.9
2023-05-19T18:36:03.278Z,16.8
2023-05-19T18:41:03.271Z,16.6
2023-05-19T18:46:03.409Z,16.6
2023-05-19T18:51:03.257Z,16.5
2023-05-19T18:56:03.276Z,16.4
2023-05-19T19:01:04.365Z,16.3
2023-05-19T19:06:03.233Z,16.1
2023-05-19T19:11:03.239Z,15.9
2023-05-19T19:16:03.331Z,15.8
2023-05-19T19:21:03.246Z,15.8
2023-05-19T19:26:03.276Z,15.6
2023-05-19T19:31:03.396Z,15.6
2023-05-19T19:36:03.272Z,15.3
2023-05-19T19:41:03.428Z,15.4
2023-05-19T19:46:03.239Z,15.4
2023-05-19T19:51:03.321Z,15.3
2023-05-19T19:56:03.324Z,15.3
2023-05-19T20:01:03.424Z,15.3
2023-05-19T20:06:03.310Z,15.1
2023-05-19T20:11:03.329Z,15
2023-05-19T20:16:03.505Z,14.9
2023-05-19T20:21:03.287Z,14.8
2023-05-19T20:26:12.240Z,14.6
2023-05-19T20:31:03.321Z,14.4
2023-05-19T20:36:03.290Z,14.4
2023-05-19T20:41:03.298Z,14.4
2023-05-19T20:46:03.398Z,14.4
2023-05-19T20:51:03.263Z,14.4
2023-05-19T20:56:03.545Z,14.3
2023-05-19T21:01:04.354Z,14.3
2023-05-19T21:06:04.327Z,14.1
2023-05-19T21:11:04.294Z,14
2023-05-19T21:16:04.326Z,13.8
2023-05-19T21:21:04.390Z,13.7
2023-05-19T21:26:04.305Z,13.5
2023-05-19T21:31:04.339Z,13.6
2023-05-19T21:36:04.386Z,13.4
2023-05-19T21:41:04.332Z,13.3
2023-05-19T21:46:04.297Z,13.2
2023-05-19T21:51:04.286Z,13.1
2023-05-19T21:56:04.404Z,13.1
2023-05-19T22:01:04.315Z,13.1
2023-05-19T22:06:04.274Z,13
2023-05-19T22:11:04.482Z,13.1
2023-05-19T22:16:04.388Z,13.2
2023-05-19T22:21:04.315Z,13.3
2023-05-19T22:26:04.415Z,13.4
2023-05-19T22:31:04.559Z,13.6
2023-05-19T22:36:04.280Z,13.6
2023-05-19T22:41:04.422Z,13.6
2023-05-19T22:46:04.504Z,13.7
2023-05-19T22:51:04.267Z,13.8
2023-05-19T22:56:04.422Z,13.9
2023-05-19T23:01:04.512Z,13.9
2023-05-19T23:06:04.341Z,13.9
2023-05-19T23:11:04.292Z,14.1
2023-05-19T23:16:04.580Z,14.1
2023-05-19T23:21:04.325Z,14.1
2023-05-19T23:26:04.330Z,14.1
2023-05-19T23:31:04.373Z,14.2
2023-05-19T23:36:04.346Z,14.2
2023-05-19T23:41:04.394Z,14.2
2023-05-19T23:46:04.389Z,14.1
2023-05-19T23:51:04.370Z,14.1
2023-05-19T23:56:04.435Z,14
